sensor_id;sensor_type;location;lat;lon;timestamp;temperature;humidity
55211;DHT22;41082;52.822;6.666;2023-03-02T00:02:15;3.70;99.90
55211;DHT22;41082;52.822;6.666;2023-03-02T00:04:45;3.70;99.90
55211;DHT22;41082;52.822;6.666;2023-03-02T00:07:21;3.70;99.90
55211;DHT22;41082;52.822;6.666;2023-03-02T00:09:47;3.70;99.90
55211;DHT22;41082;52.822;6.666;2023-03-02T00:12:13;3.60;99.90
55211;DHT22;41082;52.822;6.666;2023-03-02T00:14:40;3.60;99.90
55211;DHT22;41082;52.822;6.666;2023-03-02T00:17:06;3.70;99.90
55211;DHT22;41082;52.822;6.666;2023-03-02T00:19:32;3.60;99.90
55211;DHT22;41082;52.822;6.666;2023-03-02T00:21:58;3.70;99.90
55211;DHT22;41082;52.822;6.666;2023-03-02T00:24:24;3.60;99.90
55211;DHT22;41082;52.822;6.666;2023-03-02T00:26:49;3.60;99.90
55211;DHT22;41082;52.822;6.666;2023-03-02T00:29:15;3.60;99.90
55211;DHT22;41082;52.822;6.666;2023-03-02T00:31:40;3.60;99.90
55211;DHT22;41082;52.822;6.666;2023-03-02T00:34:06;3.60;99.90
55211;DHT22;41082;52.822;6.666;2023-03-02T00:36:32;3.60;99.90
55211;DHT22;41082;52.822;6.666;2023-03-02T00:38:58;3.60;99.90
55211;DHT22;41082;52.822;6.666;2023-03-02T00:41:23;3.50;99.90
55211;DHT22;41082;52.822;6.666;2023-03-02T00:43:49;3.60;99.90
55211;DHT22;41082;52.822;6.666;2023-03-02T00:46:18;3.60;99.90
55211;DHT22;41082;52.822;6.666;2023-03-02T00:48:44;3.60;99.90
55211;DHT22;41082;52.822;6.666;2023-03-02T00:51:10;3.60;99.90
55211;DHT22;41082;52.822;6.666;2023-03-02T00:53:36;3.60;99.90
55211;DHT22;41082;52.822;6.666;2023-03-02T00:56:02;3.50;99.90
55211;DHT22;41082;52.822;6.666;2023-03-02T00:58:28;3.50;99.90
55211;DHT22;41082;52.822;6.666;2023-03-02T01:00:55;3.50;99.90
55211;DHT22;41082;52.822;6.666;2023-03-02T01:03:21;3.60;99.90
55211;DHT22;41082;52.822;6.666;2023-03-02T01:05:47;3.60;99.90
55211;DHT22;41082;52.822;6.666;2023-03-02T01:08:13;3.50;99.90
55211;DHT22;41082;52.822;6.666;2023-03-02T01:10:39;3.50;99.90
55211;DHT22;41082;52.822;6.666;2023-03-02T01:13:05;3.60;99.90
55211;DHT22;41082;52.822;6.666;2023-03-02T01:15:32;3.60;99.90
55211;DHT22;41082;52.822;6.666;2023-03-02T01:17:59;3.50;99.90
55211;DHT22;41082;52.822;6.666;2023-03-02T01:20:25;3.50;99.90
55211;DHT22;41082;52.822;6.666;2023-03-02T01:22:51;3.50;99.90
55211;DHT22;41082;52.822;6.666;2023-03-02T01:25:16;3.50;99.90
55211;DHT22;41082;52.822;6.666;2023-03-02T01:27:42;3.50;99.90
55211;DHT22;41082;52.822;6.666;2023-03-02T01:30:08;3.50;99.90
55211;DHT22;41082;52.822;6.666;2023-03-02T01:32:34;3.50;99.90
55211;DHT22;41082;52.822;6.666;2023-03-02T01:35:00;3.50;99.90
55211;DHT22;41082;52.822;6.666;2023-03-02T01:37:25;3.40;99.90
55211;DHT22;41082;52.822;6.666;2023-03-02T01:39:51;3.40;99.90
55211;DHT22;41082;52.822;6.666;2023-03-02T01:42:17;3.40;99.90
55211;DHT22;41082;52.822;6.666;2023-03-02T01:44:46;3.40;99.90
55211;DHT22;41082;52.822;6.666;2023-03-02T01:47:21;3.40;99.90
55211;DHT22;41082;52.822;6.666;2023-03-02T01:50:04;3.30;99.90
55211;DHT22;41082;52.822;6.666;2023-03-02T01:52:33;3.30;99.90
55211;DHT22;41082;52.822;6.666;2023-03-02T01:55:03;3.30;99.90
55211;DHT22;41082;52.822;6.666;2023-03-02T01:57:32;3.30;99.90
55211;DHT22;41082;52.822;6.666;2023-03-02T02:00:01;3.20;99.90
55211;DHT22;41082;52.822;6.666;2023-03-02T02:02:31;3.20;99.90
55211;DHT22;41082;52.822;6.666;2023-03-02T02:04:57;3.20;99.90
55211;DHT22;41082;52.822;6.666;2023-03-02T02:07:22;3.20;99.90
55211;DHT22;41082;52.822;6.666;2023-03-02T02:09:50;3.10;99.90
55211;DHT22;41082;52.822;6.666;2023-03-02T02:12:20;3.20;99.90
55211;DHT22;41082;52.822;6.666;2023-03-02T02:14:46;3.10;99.90
55211;DHT22;41082;52.822;6.666;2023-03-02T02:17:13;3.10;99.90
55211;DHT22;41082;52.822;6.666;2023-03-02T02:28:36;3.20;99.90
55211;DHT22;41082;52.822;6.666;2023-03-02T02:33:31;3.10;99.90
55211;DHT22;41082;52.822;6.666;2023-03-02T02:36:05;3.10;99.90
55211;DHT22;41082;52.822;6.666;2023-03-02T02:38:33;3.10;99.90
55211;DHT22;41082;52.822;6.666;2023-03-02T02:41:02;3.20;99.90
55211;DHT22;41082;52.822;6.666;2023-03-02T02:43:30;3.20;99.90
55211;DHT22;41082;52.822;6.666;2023-03-02T02:45:57;3.20;99.90
55211;DHT22;41082;52.822;6.666;2023-03-02T02:48:24;3.20;99.90
55211;DHT22;41082;52.822;6.666;2023-03-02T02:50:52;3.20;99.90
55211;DHT22;41082;52.822;6.666;2023-03-02T02:53:43;3.20;99.90
55211;DHT22;41082;52.822;6.666;2023-03-02T02:56:13;3.20;99.90
55211;DHT22;41082;52.822;6.666;2023-03-02T02:58:43;3.20;99.90
55211;DHT22;41082;52.822;6.666;2023-03-02T03:01:15;3.20;99.90
55211;DHT22;41082;52.822;6.666;2023-03-02T03:03:49;3.10;99.90
55211;DHT22;41082;52.822;6.666;2023-03-02T03:06:24;3.10;99.90
55211;DHT22;41082;52.822;6.666;2023-03-02T03:08:56;3.10;99.90
55211;DHT22;41082;52.822;6.666;2023-03-02T03:11:34;3.00;99.90
55211;DHT22;41082;52.822;6.666;2023-03-02T03:14:10;3.00;99.90
55211;DHT22;41082;52.822;6.666;2023-03-02T03:16:38;3.10;99.90
55211;DHT22;41082;52.822;6.666;2023-03-02T03:19:09;3.00;99.90
55211;DHT22;41082;52.822;6.666;2023-03-02T03:21:36;3.00;99.90
55211;DHT22;41082;52.822;6.666;2023-03-02T03:24:01;3.00;99.90
55211;DHT22;41082;52.822;6.666;2023-03-02T03:26:27;2.90;99.90
55211;DHT22;41082;52.822;6.666;2023-03-02T03:28:53;2.90;99.90
55211;DHT22;41082;52.822;6.666;2023-03-02T03:31:22;2.90;99.90
55211;DHT22;41082;52.822;6.666;2023-03-02T03:33:48;2.90;99.90
55211;DHT22;41082;52.822;6.666;2023-03-02T03:36:13;2.90;99.90
55211;DHT22;41082;52.822;6.666;2023-03-02T03:38:39;2.90;99.90
55211;DHT22;41082;52.822;6.666;2023-03-02T03:41:05;2.90;99.90
55211;DHT22;41082;52.822;6.666;2023-03-02T03:43:30;2.90;99.90
55211;DHT22;41082;52.822;6.666;2023-03-02T03:45:56;2.90;99.90
55211;DHT22;41082;52.822;6.666;2023-03-02T03:48:21;2.90;99.90
55211;DHT22;41082;52.822;6.666;2023-03-02T03:50:47;2.90;99.90
55211;DHT22;41082;52.822;6.666;2023-03-02T03:53:13;2.90;99.90
55211;DHT22;41082;52.822;6.666;2023-03-02T03:55:38;2.80;99.90
55211;DHT22;41082;52.822;6.666;2023-03-02T03:58:04;2.80;99.90
55211;DHT22;41082;52.822;6.666;2023-03-02T04:00:30;2.80;99.90
55211;DHT22;41082;52.822;6.666;2023-03-02T04:02:55;2.80;99.90
55211;DHT22;41082;52.822;6.666;2023-03-02T04:05:21;2.80;99.90
55211;DHT22;41082;52.822;6.666;2023-03-02T04:07:46;2.80;99.90
55211;DHT22;41082;52.822;6.666;2023-03-02T04:10:12;2.80;99.90
55211;DHT22;41082;52.822;6.666;2023-03-02T04:12:39;2.80;99.90
55211;DHT22;41082;52.822;6.666;2023-03-02T04:15:09;2.80;99.90
55211;DHT22;41082;52.822;6.666;2023-03-02T04:17:37;2.80;99.90
55211;DHT22;41082;52.822;6.666;2023-03-02T04:20:03;2.70;99.90
55211;DHT22;41082;52.822;6.666;2023-03-02T04:22:32;2.80;99.90
55211;DHT22;41082;52.822;6.666;2023-03-02T04:24:57;2.70;99.90
55211;DHT22;41082;52.822;6.666;2023-03-02T04:27:23;2.80;99.90
55211;DHT22;41082;52.822;6.666;2023-03-02T04:29:48;2.70;99.90
55211;DHT22;41082;52.822;6.666;2023-03-02T04:32:17;2.80;99.90
55211;DHT22;41082;52.822;6.666;2023-03-02T04:34:43;2.80;99.90
55211;DHT22;41082;52.822;6.666;2023-03-02T04:37:09;2.70;99.90
55211;DHT22;41082;52.822;6.666;2023-03-02T04:39:35;2.70;99.90
55211;DHT22;41082;52.822;6.666;2023-03-02T04:42:00;2.70;99.90
55211;DHT22;41082;52.822;6.666;2023-03-02T04:44:26;2.70;99.90
55211;DHT22;41082;52.822;6.666;2023-03-02T04:46:51;2.70;99.90
55211;DHT22;41082;52.822;6.666;2023-03-02T04:49:18;2.60;99.90
55211;DHT22;41082;52.822;6.666;2023-03-02T04:51:46;2.60;99.90
55211;DHT22;41082;52.822;6.666;2023-03-02T04:54:21;2.60;99.90
55211;DHT22;41082;52.822;6.666;2023-03-02T04:56:47;2.60;99.90
55211;DHT22;41082;52.822;6.666;2023-03-02T04:59:18;2.60;99.90
55211;DHT22;41082;52.822;6.666;2023-03-02T05:01:44;2.60;99.90
55211;DHT22;41082;52.822;6.666;2023-03-02T05:04:12;2.60;99.90
55211;DHT22;41082;52.822;6.666;2023-03-02T05:06:37;2.60;99.90
55211;DHT22;41082;52.822;6.666;2023-03-02T05:09:03;2.70;99.90
55211;DHT22;41082;52.822;6.666;2023-03-02T05:11:29;2.60;99.90
55211;DHT22;41082;52.822;6.666;2023-03-02T05:13:57;2.70;99.90
55211;DHT22;41082;52.822;6.666;2023-03-02T05:16:25;2.60;99.90
55211;DHT22;41082;52.822;6.666;2023-03-02T05:18:53;2.60;99.90
55211;DHT22;41082;52.822;6.666;2023-03-02T05:21:19;2.60;99.90
55211;DHT22;41082;52.822;6.666;2023-03-02T05:23:45;2.60;99.90
55211;DHT22;41082;52.822;6.666;2023-03-02T05:26:12;2.70;99.90
55211;DHT22;41082;52.822;6.666;2023-03-02T05:28:38;2.70;99.90
55211;DHT22;41082;52.822;6.666;2023-03-02T05:31:03;2.70;99.90
55211;DHT22;41082;52.822;6.666;2023-03-02T05:33:29;2.70;99.90
55211;DHT22;41082;52.822;6.666;2023-03-02T05:35:56;2.70;99.90
55211;DHT22;41082;52.822;6.666;2023-03-02T05:38:22;2.60;99.90
55211;DHT22;41082;52.822;6.666;2023-03-02T05:40:48;2.60;99.90
55211;DHT22;41082;52.822;6.666;2023-03-02T05:43:18;2.60;99.90
55211;DHT22;41082;52.822;6.666;2023-03-02T05:45:44;2.60;99.90
55211;DHT22;41082;52.822;6.666;2023-03-02T05:48:12;2.50;99.90
55211;DHT22;41082;52.822;6.666;2023-03-02T05:50:37;2.50;99.90
55211;DHT22;41082;52.822;6.666;2023-03-02T05:53:03;2.50;99.90
55211;DHT22;41082;52.822;6.666;2023-03-02T05:55:29;2.50;99.90
55211;DHT22;41082;52.822;6.666;2023-03-02T05:57:55;2.40;99.90
55211;DHT22;41082;52.822;6.666;2023-03-02T06:00:21;2.50;99.90
55211;DHT22;41082;52.822;6.666;2023-03-02T06:02:47;2.40;99.90
55211;DHT22;41082;52.822;6.666;2023-03-02T06:05:16;2.50;99.90
55211;DHT22;41082;52.822;6.666;2023-03-02T06:07:42;2.40;99.90
55211;DHT22;41082;52.822;6.666;2023-03-02T06:10:09;2.40;99.90
55211;DHT22;41082;52.822;6.666;2023-03-02T06:12:35;2.40;99.90
55211;DHT22;41082;52.822;6.666;2023-03-02T06:15:03;2.40;99.90
55211;DHT22;41082;52.822;6.666;2023-03-02T06:17:29;2.40;99.90
55211;DHT22;41082;52.822;6.666;2023-03-02T06:19:55;2.40;99.90
55211;DHT22;41082;52.822;6.666;2023-03-02T06:22:20;2.40;99.90
55211;DHT22;41082;52.822;6.666;2023-03-02T06:24:46;2.40;99.90
55211;DHT22;41082;52.822;6.666;2023-03-02T06:27:12;2.40;99.90
55211;DHT22;41082;52.822;6.666;2023-03-02T06:29:38;2.40;99.90
55211;DHT22;41082;52.822;6.666;2023-03-02T06:32:04;2.40;99.90
55211;DHT22;41082;52.822;6.666;2023-03-02T06:34:29;2.30;99.90
55211;DHT22;41082;52.822;6.666;2023-03-02T06:36:55;2.30;99.90
55211;DHT22;41082;52.822;6.666;2023-03-02T06:39:21;2.30;99.90
55211;DHT22;41082;52.822;6.666;2023-03-02T06:41:47;2.30;99.90
55211;DHT22;41082;52.822;6.666;2023-03-02T06:44:14;2.30;99.90
55211;DHT22;41082;52.822;6.666;2023-03-02T06:46:40;2.20;99.90
55211;DHT22;41082;52.822;6.666;2023-03-02T06:49:07;2.30;99.90
55211;DHT22;41082;52.822;6.666;2023-03-02T06:51:33;2.20;99.90
55211;DHT22;41082;52.822;6.666;2023-03-02T06:53:59;2.20;99.90
55211;DHT22;41082;52.822;6.666;2023-03-02T06:56:25;2.20;99.90
55211;DHT22;41082;52.822;6.666;2023-03-02T06:58:50;2.20;99.90
55211;DHT22;41082;52.822;6.666;2023-03-02T07:01:16;2.20;99.90
55211;DHT22;41082;52.822;6.666;2023-03-02T07:03:42;2.20;99.90
55211;DHT22;41082;52.822;6.666;2023-03-02T07:06:09;2.20;99.90
55211;DHT22;41082;52.822;6.666;2023-03-02T07:08:35;2.20;99.90
55211;DHT22;41082;52.822;6.666;2023-03-02T07:11:04;2.20;99.90
55211;DHT22;41082;52.822;6.666;2023-03-02T07:13:30;2.20;99.90
55211;DHT22;41082;52.822;6.666;2023-03-02T07:15:56;2.20;99.90
55211;DHT22;41082;52.822;6.666;2023-03-02T07:18:21;2.30;99.90
55211;DHT22;41082;52.822;6.666;2023-03-02T07:20:47;2.30;99.90
55211;DHT22;41082;52.822;6.666;2023-03-02T07:23:12;2.30;99.90
55211;DHT22;41082;52.822;6.666;2023-03-02T07:25:38;2.30;99.90
55211;DHT22;41082;52.822;6.666;2023-03-02T07:28:03;2.40;99.90
55211;DHT22;41082;52.822;6.666;2023-03-02T07:30:29;2.40;99.90
55211;DHT22;41082;52.822;6.666;2023-03-02T07:32:55;2.40;99.90
55211;DHT22;41082;52.822;6.666;2023-03-02T07:35:20;2.40;99.90
55211;DHT22;41082;52.822;6.666;2023-03-02T07:37:46;2.40;99.90
55211;DHT22;41082;52.822;6.666;2023-03-02T07:40:12;2.40;99.90
55211;DHT22;41082;52.822;6.666;2023-03-02T07:42:38;2.40;99.90
55211;DHT22;41082;52.822;6.666;2023-03-02T07:45:04;2.50;99.90
55211;DHT22;41082;52.822;6.666;2023-03-02T07:47:31;2.50;99.90
55211;DHT22;41082;52.822;6.666;2023-03-02T07:49:57;2.50;99.90
55211;DHT22;41082;52.822;6.666;2023-03-02T07:52:22;2.50;99.90
55211;DHT22;41082;52.822;6.666;2023-03-02T07:54:48;2.60;99.90
55211;DHT22;41082;52.822;6.666;2023-03-02T07:57:14;2.60;99.90
55211;DHT22;41082;52.822;6.666;2023-03-02T07:59:41;2.60;99.90
55211;DHT22;41082;52.822;6.666;2023-03-02T08:02:11;2.60;99.90
55211;DHT22;41082;52.822;6.666;2023-03-02T08:04:37;2.60;99.90
55211;DHT22;41082;52.822;6.666;2023-03-02T08:07:03;2.60;99.90
55211;DHT22;41082;52.822;6.666;2023-03-02T08:09:29;2.70;99.90
55211;DHT22;41082;52.822;6.666;2023-03-02T08:11:54;2.60;99.90
55211;DHT22;41082;52.822;6.666;2023-03-02T08:14:20;2.70;99.90
55211;DHT22;41082;52.822;6.666;2023-03-02T08:16:45;2.70;99.90
55211;DHT22;41082;52.822;6.666;2023-03-02T08:19:11;2.70;99.90
55211;DHT22;41082;52.822;6.666;2023-03-02T08:21:37;2.70;99.90
55211;DHT22;41082;52.822;6.666;2023-03-02T08:24:03;2.80;99.90
55211;DHT22;41082;52.822;6.666;2023-03-02T08:26:29;2.80;99.90
55211;DHT22;41082;52.822;6.666;2023-03-02T08:28:55;2.80;99.90
55211;DHT22;41082;52.822;6.666;2023-03-02T08:31:21;2.90;99.90
55211;DHT22;41082;52.822;6.666;2023-03-02T08:33:46;2.90;99.90
55211;DHT22;41082;52.822;6.666;2023-03-02T08:36:17;2.90;99.90
55211;DHT22;41082;52.822;6.666;2023-03-02T08:38:43;2.90;99.90
55211;DHT22;41082;52.822;6.666;2023-03-02T08:41:12;3.00;99.90
55211;DHT22;41082;52.822;6.666;2023-03-02T08:43:38;3.00;99.90
55211;DHT22;41082;52.822;6.666;2023-03-02T08:46:04;3.10;99.90
55211;DHT22;41082;52.822;6.666;2023-03-02T08:48:30;3.10;99.90
55211;DHT22;41082;52.822;6.666;2023-03-02T08:51:14;3.10;99.90
55211;DHT22;41082;52.822;6.666;2023-03-02T08:53:42;3.20;99.90
55211;DHT22;41082;52.822;6.666;2023-03-02T08:56:19;3.20;99.90
55211;DHT22;41082;52.822;6.666;2023-03-02T08:58:47;3.30;99.90
55211;DHT22;41082;52.822;6.666;2023-03-02T09:01:18;3.30;99.90
55211;DHT22;41082;52.822;6.666;2023-03-02T09:03:44;3.40;99.90
55211;DHT22;41082;52.822;6.666;2023-03-02T09:06:09;3.50;99.90
55211;DHT22;41082;52.822;6.666;2023-03-02T09:08:35;3.50;99.90
55211;DHT22;41082;52.822;6.666;2023-03-02T09:11:00;3.50;99.90
55211;DHT22;41082;52.822;6.666;2023-03-02T09:13:26;3.50;99.90
55211;DHT22;41082;52.822;6.666;2023-03-02T09:15:52;3.60;99.90
55211;DHT22;41082;52.822;6.666;2023-03-02T09:18:17;3.60;99.90
55211;DHT22;41082;52.822;6.666;2023-03-02T09:20:43;3.70;99.90
55211;DHT22;41082;52.822;6.666;2023-03-02T09:23:08;3.80;99.90
55211;DHT22;41082;52.822;6.666;2023-03-02T09:25:35;3.90;99.90
55211;DHT22;41082;52.822;6.666;2023-03-02T09:28:00;3.90;99.90
55211;DHT22;41082;52.822;6.666;2023-03-02T09:30:26;4.00;99.90
55211;DHT22;41082;52.822;6.666;2023-03-02T09:32:52;4.00;99.90
55211;DHT22;41082;52.822;6.666;2023-03-02T09:35:17;4.10;99.90
55211;DHT22;41082;52.822;6.666;2023-03-02T09:37:43;4.10;99.90
55211;DHT22;41082;52.822;6.666;2023-03-02T09:40:20;4.20;99.90
55211;DHT22;41082;52.822;6.666;2023-03-02T09:50:36;4.30;99.90
55211;DHT22;41082;52.822;6.666;2023-03-02T09:53:36;4.40;99.90
55211;DHT22;41082;52.822;6.666;2023-03-02T09:56:13;4.40;99.90
55211;DHT22;41082;52.822;6.666;2023-03-02T09:58:40;4.50;99.90
55211;DHT22;41082;52.822;6.666;2023-03-02T10:01:12;4.60;99.90
55211;DHT22;41082;52.822;6.666;2023-03-02T10:03:56;4.60;99.90
55211;DHT22;41082;52.822;6.666;2023-03-02T10:06:24;4.60;99.90
55211;DHT22;41082;52.822;6.666;2023-03-02T10:08:49;4.60;99.90
55211;DHT22;41082;52.822;6.666;2023-03-02T10:11:39;4.70;99.90
55211;DHT22;41082;52.822;6.666;2023-03-02T10:16:51;4.80;99.90
55211;DHT22;41082;52.822;6.666;2023-03-02T10:19:25;4.90;99.90
55211;DHT22;41082;52.822;6.666;2023-03-02T10:22:03;4.90;99.90
55211;DHT22;41082;52.822;6.666;2023-03-02T10:25:25;5.00;99.90
55211;DHT22;41082;52.822;6.666;2023-03-02T10:27:35;5.00;99.90
55211;DHT22;41082;52.822;6.666;2023-03-02T10:32:44;5.00;99.90
55211;DHT22;41082;52.822;6.666;2023-03-02T10:35:17;5.10;99.90
55211;DHT22;41082;52.822;6.666;2023-03-02T10:37:46;5.00;99.90
55211;DHT22;41082;52.822;6.666;2023-03-02T10:40:57;5.00;99.90
55211;DHT22;41082;52.822;6.666;2023-03-02T10:43:33;5.00;99.90
55211;DHT22;41082;52.822;6.666;2023-03-02T10:46:08;5.10;99.90
55211;DHT22;41082;52.822;6.666;2023-03-02T10:48:47;5.20;99.90
55211;DHT22;41082;52.822;6.666;2023-03-02T10:51:25;5.30;99.90
55211;DHT22;41082;52.822;6.666;2023-03-02T10:54:12;5.30;99.90
55211;DHT22;41082;52.822;6.666;2023-03-02T10:56:41;5.10;99.90
55211;DHT22;41082;52.822;6.666;2023-03-02T11:01:59;5.20;99.90
55211;DHT22;41082;52.822;6.666;2023-03-02T11:04:25;5.30;99.90
55211;DHT22;41082;52.822;6.666;2023-03-02T11:06:52;5.10;99.90
55211;DHT22;41082;52.822;6.666;2023-03-02T11:09:17;5.00;99.90
55211;DHT22;41082;52.822;6.666;2023-03-02T11:11:54;5.00;99.90
55211;DHT22;41082;52.822;6.666;2023-03-02T11:14:21;5.00;99.90
55211;DHT22;41082;52.822;6.666;2023-03-02T11:16:50;5.10;99.90
55211;DHT22;41082;52.822;6.666;2023-03-02T11:19:23;5.10;99.90
55211;DHT22;41082;52.822;6.666;2023-03-02T11:22:02;5.10;99.90
55211;DHT22;41082;52.822;6.666;2023-03-02T11:24:50;5.20;99.90
55211;DHT22;41082;52.822;6.666;2023-03-02T11:27:21;5.20;99.90
55211;DHT22;41082;52.822;6.666;2023-03-02T11:29:59;5.30;99.90
55211;DHT22;41082;52.822;6.666;2023-03-02T11:32:50;5.20;99.90
55211;DHT22;41082;52.822;6.666;2023-03-02T11:37:51;5.40;99.90
55211;DHT22;41082;52.822;6.666;2023-03-02T11:40:33;5.50;99.90
55211;DHT22;41082;52.822;6.666;2023-03-02T11:43:01;5.60;99.90
55211;DHT22;41082;52.822;6.666;2023-03-02T11:45:32;5.60;99.90
55211;DHT22;41082;52.822;6.666;2023-03-02T11:48:07;5.70;99.90
55211;DHT22;41082;52.822;6.666;2023-03-02T11:50:45;5.70;99.90
55211;DHT22;41082;52.822;6.666;2023-03-02T11:53:17;5.60;99.90
55211;DHT22;41082;52.822;6.666;2023-03-02T11:55:46;5.60;99.90
55211;DHT22;41082;52.822;6.666;2023-03-02T11:58:23;5.60;99.90
55211;DHT22;41082;52.822;6.666;2023-03-02T12:00:50;5.60;99.90
55211;DHT22;41082;52.822;6.666;2023-03-02T12:06:06;5.60;99.90
55211;DHT22;41082;52.822;6.666;2023-03-02T12:08:41;5.60;99.90
55211;DHT22;41082;52.822;6.666;2023-03-02T12:14:03;5.60;99.90
55211;DHT22;41082;52.822;6.666;2023-03-02T12:16:40;5.60;99.90
55211;DHT22;41082;52.822;6.666;2023-03-02T12:19:26;5.70;99.90
55211;DHT22;41082;52.822;6.666;2023-03-02T12:24:25;5.70;99.90
55211;DHT22;41082;52.822;6.666;2023-03-02T12:29:41;5.80;99.90
55211;DHT22;41082;52.822;6.666;2023-03-02T12:32:27;5.80;99.90
55211;DHT22;41082;52.822;6.666;2023-03-02T12:37:46;6.00;99.90
55211;DHT22;41082;52.822;6.666;2023-03-02T12:40:38;6.10;99.90
55211;DHT22;41082;52.822;6.666;2023-03-02T12:43:18;6.20;99.90
55211;DHT22;41082;52.822;6.666;2023-03-02T12:46:00;6.20;99.90
55211;DHT22;41082;52.822;6.666;2023-03-02T12:48:31;6.20;99.90
55211;DHT22;41082;52.822;6.666;2023-03-02T12:51:02;6.10;99.90
55211;DHT22;41082;52.822;6.666;2023-03-02T12:53:28;5.90;99.90
55211;DHT22;41082;52.822;6.666;2023-03-02T12:55:54;5.90;99.90
55211;DHT22;41082;52.822;6.666;2023-03-02T12:58:25;5.90;99.90
55211;DHT22;41082;52.822;6.666;2023-03-02T13:00:58;5.90;99.90
55211;DHT22;41082;52.822;6.666;2023-03-02T13:03:25;5.90;99.90
55211;DHT22;41082;52.822;6.666;2023-03-02T13:05:59;5.80;99.90
55211;DHT22;41082;52.822;6.666;2023-03-02T13:08:27;5.90;99.90
55211;DHT22;41082;52.822;6.666;2023-03-02T13:11:03;5.80;99.90
55211;DHT22;41082;52.822;6.666;2023-03-02T13:15:59;5.90;99.90
55211;DHT22;41082;52.822;6.666;2023-03-02T13:18:31;6.00;99.90
55211;DHT22;41082;52.822;6.666;2023-03-02T13:21:01;6.00;99.90
55211;DHT22;41082;52.822;6.666;2023-03-02T13:23:30;6.00;99.90
55211;DHT22;41082;52.822;6.666;2023-03-02T13:26:01;6.00;99.90
55211;DHT22;41082;52.822;6.666;2023-03-02T13:31:20;6.00;99.90
55211;DHT22;41082;52.822;6.666;2023-03-02T13:33:48;6.00;99.90
55211;DHT22;41082;52.822;6.666;2023-03-02T13:36:21;6.00;99.90
55211;DHT22;41082;52.822;6.666;2023-03-02T13:38:51;6.10;99.90
55211;DHT22;41082;52.822;6.666;2023-03-02T13:41:26;6.10;99.90
55211;DHT22;41082;52.822;6.666;2023-03-02T13:43:52;6.10;99.90
55211;DHT22;41082;52.822;6.666;2023-03-02T13:49:04;5.90;99.90
55211;DHT22;41082;52.822;6.666;2023-03-02T13:51:45;5.90;99.90
55211;DHT22;41082;52.822;6.666;2023-03-02T13:56:42;5.60;99.90
55211;DHT22;41082;52.822;6.666;2023-03-02T13:59:13;5.70;99.90
55211;DHT22;41082;52.822;6.666;2023-03-02T14:01:39;5.70;99.90
55211;DHT22;41082;52.822;6.666;2023-03-02T14:04:08;5.90;99.90
55211;DHT22;41082;52.822;6.666;2023-03-02T14:06:35;5.90;99.90
55211;DHT22;41082;52.822;6.666;2023-03-02T14:09:00;6.00;99.90
55211;DHT22;41082;52.822;6.666;2023-03-02T14:11:30;6.10;99.90
55211;DHT22;41082;52.822;6.666;2023-03-02T14:13:56;6.10;99.90
55211;DHT22;41082;52.822;6.666;2023-03-02T14:16:22;6.10;99.90
55211;DHT22;41082;52.822;6.666;2023-03-02T14:18:50;6.20;99.90
55211;DHT22;41082;52.822;6.666;2023-03-02T14:21:21;6.20;99.90
55211;DHT22;41082;52.822;6.666;2023-03-02T14:23:48;6.20;99.90
55211;DHT22;41082;52.822;6.666;2023-03-02T14:26:25;6.20;99.90
55211;DHT22;41082;52.822;6.666;2023-03-02T14:28:52;6.20;99.90
55211;DHT22;41082;52.822;6.666;2023-03-02T14:31:18;6.20;99.90
55211;DHT22;41082;52.822;6.666;2023-03-02T14:33:44;6.10;99.90
55211;DHT22;41082;52.822;6.666;2023-03-02T14:36:14;6.00;99.90
55211;DHT22;41082;52.822;6.666;2023-03-02T14:38:42;5.90;99.90
55211;DHT22;41082;52.822;6.666;2023-03-02T14:41:21;5.90;99.90
55211;DHT22;41082;52.822;6.666;2023-03-02T14:43:48;5.80;99.90
55211;DHT22;41082;52.822;6.666;2023-03-02T14:46:14;5.90;99.90
55211;DHT22;41082;52.822;6.666;2023-03-02T14:48:40;5.90;99.90
55211;DHT22;41082;52.822;6.666;2023-03-02T14:53:40;5.80;99.90
55211;DHT22;41082;52.822;6.666;2023-03-02T14:56:09;5.80;99.90
55211;DHT22;41082;52.822;6.666;2023-03-02T14:58:35;5.80;99.90
55211;DHT22;41082;52.822;6.666;2023-03-02T15:01:01;5.70;99.90
55211;DHT22;41082;52.822;6.666;2023-03-02T15:03:28;5.60;99.90
55211;DHT22;41082;52.822;6.666;2023-03-02T15:05:53;5.60;99.90
55211;DHT22;41082;52.822;6.666;2023-03-02T15:08:21;5.60;99.90
55211;DHT22;41082;52.822;6.666;2023-03-02T15:10:47;5.60;99.90
55211;DHT22;41082;52.822;6.666;2023-03-02T15:13:13;5.60;99.90
55211;DHT22;41082;52.822;6.666;2023-03-02T15:15:41;5.50;99.90
55211;DHT22;41082;52.822;6.666;2023-03-02T15:18:08;5.50;99.90
55211;DHT22;41082;52.822;6.666;2023-03-02T15:20:34;5.50;99.90
55211;DHT22;41082;52.822;6.666;2023-03-02T15:23:00;5.40;99.90
55211;DHT22;41082;52.822;6.666;2023-03-02T15:25:27;5.40;99.90
55211;DHT22;41082;52.822;6.666;2023-03-02T15:27:54;5.40;99.90
55211;DHT22;41082;52.822;6.666;2023-03-02T15:30:20;5.40;99.90
55211;DHT22;41082;52.822;6.666;2023-03-02T15:32:46;5.40;99.90
55211;DHT22;41082;52.822;6.666;2023-03-02T15:35:12;5.40;99.90
55211;DHT22;41082;52.822;6.666;2023-03-02T15:37:38;5.40;99.90
55211;DHT22;41082;52.822;6.666;2023-03-02T15:40:04;5.40;99.90
55211;DHT22;41082;52.822;6.666;2023-03-02T15:42:29;5.40;99.90
55211;DHT22;41082;52.822;6.666;2023-03-02T15:44:55;5.40;99.90
55211;DHT22;41082;52.822;6.666;2023-03-02T15:47:21;5.40;99.90
55211;DHT22;41082;52.822;6.666;2023-03-02T15:49:47;5.40;99.90
55211;DHT22;41082;52.822;6.666;2023-03-02T15:52:13;5.40;99.90
55211;DHT22;41082;52.822;6.666;2023-03-02T15:54:39;5.40;99.90
55211;DHT22;41082;52.822;6.666;2023-03-02T15:57:05;5.40;99.90
55211;DHT22;41082;52.822;6.666;2023-03-02T15:59:31;5.40;99.90
55211;DHT22;41082;52.822;6.666;2023-03-02T16:01:57;5.40;99.90
55211;DHT22;41082;52.822;6.666;2023-03-02T16:04:27;5.50;99.90
55211;DHT22;41082;52.822;6.666;2023-03-02T16:06:53;5.50;99.90
55211;DHT22;41082;52.822;6.666;2023-03-02T16:09:21;5.50;99.90
55211;DHT22;41082;52.822;6.666;2023-03-02T16:11:48;5.50;99.90
55211;DHT22;41082;52.822;6.666;2023-03-02T16:14:13;5.50;99.90
55211;DHT22;41082;52.822;6.666;2023-03-02T16:16:41;5.40;99.90
55211;DHT22;41082;52.822;6.666;2023-03-02T16:19:10;5.40;99.90
55211;DHT22;41082;52.822;6.666;2023-03-02T16:21:36;5.50;99.90
55211;DHT22;41082;52.822;6.666;2023-03-02T16:24:01;5.40;99.90
55211;DHT22;41082;52.822;6.666;2023-03-02T16:26:30;5.40;99.90
55211;DHT22;41082;52.822;6.666;2023-03-02T16:28:56;5.40;99.90
55211;DHT22;41082;52.822;6.666;2023-03-02T16:31:22;5.40;99.90
55211;DHT22;41082;52.822;6.666;2023-03-02T16:33:51;5.40;99.90
55211;DHT22;41082;52.822;6.666;2023-03-02T16:36:17;5.30;99.90
55211;DHT22;41082;52.822;6.666;2023-03-02T16:38:43;5.40;99.90
55211;DHT22;41082;52.822;6.666;2023-03-02T16:41:14;5.40;99.90
55211;DHT22;41082;52.822;6.666;2023-03-02T16:43:48;5.30;99.90
55211;DHT22;41082;52.822;6.666;2023-03-02T16:46:15;5.30;99.90
55211;DHT22;41082;52.822;6.666;2023-03-02T16:48:41;5.30;99.90
55211;DHT22;41082;52.822;6.666;2023-03-02T16:51:07;5.20;99.90